CML weather

Public forecast

Using degrees Celsius for public forecast. Weather courtesy of forecast.io.

Closest aviation weather report (METAR) to Camooweal Airport

Closest report is Mount Isa Airport, 89.1 nm (165.0 km) ESE. Retrieved 2020/08/11 21:30 UTC (0 seconds ago):

YBMA 112130Z AUTO 18004KT 9999 // NCD 09/02 Q1016 RF000/0000

Closest aviation forecast (TAF) to Camooweal Airport

Closest forecast is Mount Isa Airport, 89.1 nm (165.0 km) ESE. Retrieved 2020/08/11 18:33 UTC (3 hours ago):

TAF YBMA 111727Z 1118/1206 02005KT CAVOK FM120000 27010KT CAVOK